Time;durP1;ratioP1;P1;durP2;ratioP2;P2;SDS_P1;SDS_P2;PMS_P1;PMS_P2;Temp;Humidity;BMP_temperature;BMP_pressure;BME280_temperature;BME280_humidity;BME280_pressure;Samples;Min_cycle;Max_cycle;Signal;HPM_P1;HPM_P2
2021/05/17 00:02:06;;;;;;;;;;;;;;;13.46;71.75;94321.69;5097933;28;19946;-80
2021/05/17 00:04:35;;;;;;;;;;;;;;;13.51;71.62;94329.56;5092557;28;19969;-79
2021/05/17 00:07:04;;;;;;;;;;;;;;;13.47;71.41;94322.47;5106847;22;19925;-80
2021/05/17 00:09:29;;;;;;;;;;;;;;;13.43;72.26;94321.44;5104540;28;19920;-80
2021/05/17 00:11:58;;;;;;;;;;;;;;;13.46;71.98;94326.13;5090933;28;19929;-81
2021/05/17 00:14:24;;;;;;;;;;;;;;;13.47;72.01;94330.31;5078265;28;20487;-79
2021/05/17 00:16:49;;;;;;;;;;;;;;;13.46;72.33;94331.38;5092882;28;20741;-79
2021/05/17 00:19:14;;;;;;;;;;;;;;;13.44;72.45;94336.06;5096652;28;19924;-79
2021/05/17 00:21:40;;;;;;;;;;;;;;;13.37;72.57;94346.78;5074914;28;19932;-79
2021/05/17 00:24:06;;;;;;;;;;;;;;;13.37;72.71;94335.56;5076047;28;19970;-80
2021/05/17 00:26:31;;;;;;;;;;;;;;;13.34;72.77;94339.47;5096519;28;19916;-78
2021/05/17 00:28:57;;;;;;;;;;;;;;;13.32;72.51;94335.53;5060754;28;20550;-78
2021/05/17 00:31:22;;;;;;;;;;;;;;;13.30;72.56;94337.63;5074897;28;20327;-79
2021/05/17 00:33:47;;;;;;;;;;;;;;;13.32;72.49;94335.53;5074176;28;19920;-79
2021/05/17 00:36:13;;;;;;;;;;;;;;;13.32;71.66;94338.16;5081115;28;19920;-80
2021/05/17 00:38:38;;;;;;;;;;;;;;;13.25;72.04;94330.56;5094200;28;19925;-82
2021/05/17 00:41:03;;;;;;;;;;;;;;;13.19;72.33;94336.84;5093587;28;19920;-80
2021/05/17 00:43:32;;;;;;;;;;;;;;;13.12;72.59;94331.03;5074802;28;20430;-80
2021/05/17 00:45:57;;;;;;;;;;;;;;;13.13;72.72;94322.16;5091649;28;19931;-80
2021/05/17 00:48:22;;;;;;;;;;;;;;;13.12;72.50;94328.44;5205952;22;19924;-82
2021/05/17 00:50:48;;;;;;;;;;;;;;;13.10;72.59;94318.25;5090977;28;19920;-82
2021/05/17 00:53:13;;;;;;;;;;;;;;;13.16;73.11;94324.25;5102103;22;19924;-83
2021/05/17 00:55:38;;;;;;;;;;;;;;;13.18;73.73;94320.41;5054461;28;20006;-80
2021/05/17 00:58:13;;;;;;;;;;;;;;;13.22;73.56;94333.72;5130221;22;19924;-80
2021/05/17 01:00:38;;;;;;;;;;;;;;;13.24;73.88;94336.06;5070895;28;20565;-80
2021/05/17 01:03:04;;;;;;;;;;;;;;;13.31;73.20;94333.97;5068556;28;19954;-80
2021/05/17 01:05:29;;;;;;;;;;;;;;;13.26;72.82;94331.34;5028531;28;19921;-80
2021/05/17 01:07:55;;;;;;;;;;;;;;;13.27;72.58;94333.72;5049386;28;19921;-80
2021/05/17 01:10:20;;;;;;;;;;;;;;;13.30;72.13;94342.84;5048406;28;19921;-79
2021/05/17 01:12:46;;;;;;;;;;;;;;;13.34;71.88;94349.09;5045921;28;19921;-80
2021/05/17 01:15:12;;;;;;;;;;;;;;;13.37;71.54;94346.00;5050319;28;20145;-82
2021/05/17 01:17:37;;;;;;;;;;;;;;;13.38;71.87;94342.34;5044401;28;20359;-81
2021/05/17 01:20:02;;;;;;;;;;;;;;;13.36;72.17;94341.81;5048612;28;19925;-81
2021/05/17 01:22:34;;;;;;;;;;;;;;;13.39;71.95;94346.53;5048845;28;19939;-81
2021/05/17 01:24:59;;;;;;;;;;;;;;;13.42;71.61;94344.16;5048151;28;19925;-82
2021/05/17 01:27:25;;;;;;;;;;;;;;;13.40;71.89;94356.72;5038952;28;19921;-81
2021/05/17 01:29:50;;;;;;;;;;;;;;;13.46;72.05;94345.22;5047081;28;19963;-81
2021/05/17 01:32:15;;;;;;;;;;;;;;;13.50;71.97;94342.84;5077233;22;20135;-81
2021/05/17 01:34:41;;;;;;;;;;;;;;;13.46;73.01;94350.44;5099808;28;19935;-82
2021/05/17 01:37:06;;;;;;;;;;;;;;;13.44;73.08;94355.13;5064650;28;19927;-82
2021/05/17 01:39:32;;;;;;;;;;;;;;;13.43;73.60;94347.56;5080736;28;19931;-82
2021/05/17 01:41:57;;;;;;;;;;;;;;;13.34;73.88;94338.66;5064171;28;20497;-81
2021/05/17 01:44:23;;;;;;;;;;;;;;;13.20;74.50;94339.19;5127395;22;20938;-80
2021/05/17 01:46:48;;;;;;;;;;;;;;;13.28;74.40;94324.03;5079388;28;19924;-81
2021/05/17 01:49:14;;;;;;;;;;;;;;;13.31;74.11;94328.75;5062020;28;19971;-81
2021/05/17 01:51:45;;;;;;;;;;;;;;;13.28;74.21;94321.44;5044850;28;19921;-80
2021/05/17 01:54:11;;;;;;;;;;;;;;;13.29;74.65;94329.00;5115299;22;20724;-81
2021/05/17 01:56:36;;;;;;;;;;;;;;;13.33;74.35;94324.03;5091594;28;19924;-81
2021/05/17 01:59:01;;;;;;;;;;;;;;;13.34;74.63;94336.88;5114196;22;19931;-80
2021/05/17 02:01:27;;;;;;;;;;;;;;;13.34;74.37;94321.19;5088140;28;19920;-79
2021/05/17 02:03:52;;;;;;;;;;;;;;;13.43;74.48;94326.66;5081335;28;19920;-78
2021/05/17 02:06:17;;;;;;;;;;;;;;;13.43;73.91;94316.22;5064958;28;19920;-79
2021/05/17 02:08:47;;;;;;;;;;;;;;;13.40;74.16;94307.09;5081595;28;20395;-78
2021/05/17 02:11:13;;;;;;;;;;;;;;;13.47;74.25;94312.81;5078548;28;19924;-78
2021/05/17 02:13:39;;;;;;;;;;;;;;;13.51;73.95;94308.66;5062403;28;19927;-78
2021/05/17 02:16:04;;;;;;;;;;;;;;;13.59;72.93;94303.94;5055657;28;20003;-78
2021/05/17 02:18:30;;;;;;;;;;;;;;;13.54;73.29;94307.34;5142037;22;19978;-77
2021/05/17 02:20:55;;;;;;;;;;;;;;;13.60;73.30;94318.56;5116297;22;20043;-77
2021/05/17 02:23:20;;;;;;;;;;;;;;;13.52;73.40;94310.22;5060526;28;19928;-77
2021/05/17 02:25:46;;;;;;;;;;;;;;;13.55;73.21;94311.53;5133854;22;19924;-77
2021/05/17 02:28:12;;;;;;;;;;;;;;;13.59;73.56;94320.41;5088996;28;19926;-77
2021/05/17 02:30:38;;;;;;;;;;;;;;;13.66;72.84;94318.28;5071017;28;20003;-78
2021/05/17 02:33:03;;;;;;;;;;;;;;;13.65;72.78;94323.78;5071226;28;19924;-78
2021/05/17 02:35:28;;;;;;;;;;;;;;;13.63;73.10;94318.81;5046943;28;19920;-77
2021/05/17 02:37:54;;;;;;;;;;;;;;;13.63;73.56;94316.22;5072860;28;19931;-77
2021/05/17 02:40:19;;;;;;;;;;;;;;;13.65;73.29;94308.09;5077839;28;20371;-78
2021/05/17 02:42:45;;;;;;;;;;;;;;;13.71;73.25;94313.09;5076926;28;19985;-77
2021/05/17 02:45:14;;;;;;;;;;;;;;;13.63;73.56;94324.06;5073329;28;19920;-77
2021/05/17 02:47:40;;;;;;;;;;;;;;;13.68;73.05;94323.28;5092451;28;19927;-77
2021/05/17 02:50:06;;;;;;;;;;;;;;;13.70;72.74;94331.63;5092818;28;19924;-77
2021/05/17 02:52:31;;;;;;;;;;;;;;;13.69;72.82;94325.63;5092259;28;19939;-77
2021/05/17 02:55:07;;;;;;;;;;;;;;;13.70;72.95;94329.81;5074484;28;19935;-77
2021/05/17 02:57:38;;;;;;;;;;;;;;;13.68;72.82;94333.72;5092527;28;19916;-77
2021/05/17 03:00:22;;;;;;;;;;;;;;;13.67;72.95;94338.19;5126245;22;20229;-77
2021/05/17 03:02:53;;;;;;;;;;;;;;;13.66;73.01;94331.34;5103301;28;19919;-77
2021/05/17 03:05:18;;;;;;;;;;;;;;;13.63;72.64;94337.13;5101996;28;20092;-77
2021/05/17 03:07:44;;;;;;;;;;;;;;;13.62;72.66;94338.16;5102083;28;20423;-77
2021/05/17 03:10:09;;;;;;;;;;;;;;;13.66;72.41;94344.41;5103315;28;19924;-77
2021/05/17 03:15:05;;;;;;;;;;;;;;;13.51;72.69;94353.06;5079734;28;19952;-78
2021/05/17 03:17:30;;;;;;;;;;;;;;;13.54;72.59;94349.16;5078530;28;19925;-77
2021/05/17 03:19:56;;;;;;;;;;;;;;;13.60;72.20;94352.53;5118282;22;19932;-76
2021/05/17 03:22:22;;;;;;;;;;;;;;;13.62;71.96;94356.44;5082333;28;19920;-79
2021/05/17 03:24:48;;;;;;;;;;;;;;;13.64;71.87;94358.78;5098540;28;19924;-80
2021/05/17 03:27:23;;;;;;;;;;;;;;;13.69;72.28;94358.81;5097875;28;19927;-78
2021/05/17 03:29:48;;;;;;;;;;;;;;;13.72;72.10;94356.47;5095195;28;19931;-80
2021/05/17 03:32:13;;;;;;;;;;;;;;;13.67;72.03;94353.84;5094053;28;20385;-80
2021/05/17 03:34:39;;;;;;;;;;;;;;;13.65;72.62;94360.34;5095761;28;19955;-80
2021/05/17 03:37:04;;;;;;;;;;;;;;;13.67;72.61;94363.53;5095627;28;20380;-80
2021/05/17 03:39:29;;;;;;;;;;;;;;;13.66;72.24;94365.31;5095536;28;19965;-79
2021/05/17 03:41:55;;;;;;;;;;;;;;;13.59;72.70;94377.88;5060457;28;20307;-79
2021/05/17 03:44:20;;;;;;;;;;;;;;;13.63;72.47;94378.91;5058257;28;19927;-80
2021/05/17 03:46:45;;;;;;;;;;;;;;;13.63;72.90;94386.75;5119025;28;19920;-79
2021/05/17 03:49:10;;;;;;;;;;;;;;;13.70;72.65;94381.28;5119304;28;19928;-81
2021/05/17 03:51:36;;;;;;;;;;;;;;;13.72;72.59;94379.97;5099951;28;20314;-82
2021/05/17 03:54:01;;;;;;;;;;;;;;;13.76;72.26;94372.38;5081965;28;19927;-80
2021/05/17 03:56:27;;;;;;;;;;;;;;;13.78;72.88;94381.53;5110272;28;19936;-79
2021/05/17 03:58:52;;;;;;;;;;;;;;;13.81;72.26;94373.16;5112411;28;19927;-78
2021/05/17 04:01:17;;;;;;;;;;;;;;;13.90;72.33;94377.88;5105264;28;19920;-81
2021/05/17 04:03:42;;;;;;;;;;;;;;;13.98;72.04;94379.94;5079161;28;19946;-80
2021/05/17 04:06:18;;;;;;;;;;;;;;;14.03;71.78;94378.13;5098554;28;19920;-83
2021/05/17 04:14:11;;;;;;;;;;;;;;;14.28;70.68;94374.69;5081238;28;19931;-82
2021/05/17 04:16:37;;;;;;;;;;;;;;;14.32;70.89;94373.13;5078591;28;19924;-85
2021/05/17 04:19:02;;;;;;;;;;;;;;;14.36;70.57;94370.75;5055052;28;20451;-79
2021/05/17 04:21:27;;;;;;;;;;;;;;;14.47;69.56;94371.50;5094930;28;20527;-78
2021/05/17 04:23:53;;;;;;;;;;;;;;;14.59;69.88;94370.19;5098454;28;19924;-80
2021/05/17 04:26:18;;;;;;;;;;;;;;;14.65;69.68;94369.13;5096351;28;19920;-82
2021/05/17 04:28:43;;;;;;;;;;;;;;;14.68;69.27;94367.81;5099419;28;19926;-83
2021/05/17 04:31:08;;;;;;;;;;;;;;;14.77;69.04;94360.94;5065727;28;19927;-80
2021/05/17 04:33:34;;;;;;;;;;;;;;;14.76;68.57;94374.31;5095622;28;19926;-80
2021/05/17 04:36:00;;;;;;;;;;;;;;;14.84;68.45;94366.69;5095944;28;19920;-81
2021/05/17 04:38:25;;;;;;;;;;;;;;;14.85;67.33;94373.50;5061187;28;20049;-81
2021/05/17 04:40:50;;;;;;;;;;;;;;;14.85;67.91;94370.88;5080906;28;19920;-81
2021/05/17 04:43:16;;;;;;;;;;;;;;;14.89;67.88;94371.13;5105550;28;20083;-82
2021/05/17 04:45:41;;;;;;;;;;;;;;;14.84;67.20;94365.91;5080070;28;20173;-80
2021/05/17 04:48:06;;;;;;;;;;;;;;;14.75;67.99;94362.28;5102024;28;19924;-81
2021/05/17 04:50:32;;;;;;;;;;;;;;;14.76;68.21;94359.38;5083261;28;19926;-81
2021/05/17 04:52:57;;;;;;;;;;;;;;;14.84;67.30;94350.97;5063478;28;19928;-81
2021/05/17 04:55:25;;;;;;;;;;;;;;;14.88;66.90;94352.00;5079133;28;19993;-81
2021/05/17 04:57:50;;;;;;;;;;;;;;;14.89;66.97;94353.56;5062201;28;19927;-81
2021/05/17 05:00:16;;;;;;;;;;;;;;;14.99;67.64;94347.50;5095974;28;19920;-81
2021/05/17 05:02:41;;;;;;;;;;;;;;;15.19;67.24;94363.09;5094878;28;19920;-82
2021/05/17 05:05:07;;;;;;;;;;;;;;;15.37;66.63;94364.28;5079563;28;20411;-79
2021/05/17 05:07:33;;;;;;;;;;;;;;;15.42;64.91;94360.84;5076061;28;19928;-77
2021/05/17 05:09:58;;;;;;;;;;;;;;;15.45;65.70;94370.78;5089983;28;20452;-77
2021/05/17 05:12:23;;;;;;;;;;;;;;;15.56;65.05;94365.22;5089998;28;19924;-77
2021/05/17 05:14:49;;;;;;;;;;;;;;;15.75;65.49;94359.34;5089268;28;19947;-78
2021/05/17 05:17:14;;;;;;;;;;;;;;;15.95;64.24;94356.56;5072057;28;19973;-77
2021/05/17 05:19:39;;;;;;;;;;;;;;;15.85;63.20;94365.28;5071856;28;19924;-78
2021/05/17 05:22:04;;;;;;;;;;;;;;;15.73;63.94;94367.47;5090308;28;20032;-78
2021/05/17 05:24:30;;;;;;;;;;;;;;;15.83;63.25;94367.41;5071957;28;19935;-78
2021/05/17 05:32:23;;;;;;;;;;;;;;;16.53;63.65;94374.88;5091473;28;19931;-77
2021/05/17 05:34:48;;;;;;;;;;;;;;;16.93;62.74;94378.13;5101586;22;19990;-77
2021/05/17 05:37:14;;;;;;;;;;;;;;;17.07;61.73;94369.25;5057486;28;20399;-78
2021/05/17 05:39:39;;;;;;;;;;;;;;;17.04;62.18;94369.03;5039549;28;19932;-78
2021/05/17 05:42:04;;;;;;;;;;;;;;;16.99;60.64;94377.00;5040040;28;20008;-77
2021/05/17 05:44:31;;;;;;;;;;;;;;;16.87;61.06;94371.34;5039109;28;19948;-77
2021/05/17 05:46:56;;;;;;;;;;;;;;;16.58;61.48;94381.91;5039337;28;19957;-78
2021/05/17 05:49:24;;;;;;;;;;;;;;;16.19;63.30;94369.69;5040928;28;19947;-80
2021/05/17 05:51:50;;;;;;;;;;;;;;;16.25;63.48;94367.81;5038767;28;21374;-78
2021/05/17 05:54:16;;;;;;;;;;;;;;;16.29;63.83;94369.63;5029471;28;19921;-78
2021/05/17 05:56:41;;;;;;;;;;;;;;;16.39;62.17;94368.72;5039242;28;20032;-78
2021/05/17 05:59:13;;;;;;;;;;;;;;;16.42;63.14;94373.41;5128979;22;19927;-78
2021/05/17 06:01:38;;;;;;;;;;;;;;;16.62;62.75;94352.19;5106403;28;19920;-79
2021/05/17 06:04:03;;;;;;;;;;;;;;;16.97;62.27;94345.75;5104394;28;20012;-78
2021/05/17 06:06:29;;;;;;;;;;;;;;;17.13;61.80;94340.31;5112416;28;20043;-77
2021/05/17 06:08:54;;;;;;;;;;;;;;;17.17;61.46;94336.03;5105305;28;19919;-77
2021/05/17 06:11:19;;;;;;;;;;;;;;;17.22;60.43;94336.75;5101148;28;19924;-78
2021/05/17 06:13:47;;;;;;;;;;;;;;;17.23;61.40;94334.88;5106945;28;19920;-78
2021/05/17 06:16:12;;;;;;;;;;;;;;;17.18;60.82;94321.84;5105874;28;19951;-76
2021/05/17 06:18:40;;;;;;;;;;;;;;;17.21;60.87;94329.91;5108475;28;19946;-79
2021/05/17 06:21:06;;;;;;;;;;;;;;;17.39;60.73;94329.13;5109161;28;20530;-78
2021/05/17 06:23:32;;;;;;;;;;;;;;;17.44;60.62;94324.88;5109114;28;19919;-76
2021/05/17 06:25:57;;;;;;;;;;;;;;;17.66;59.80;94328.47;5110297;28;20415;-79
2021/05/17 06:28:24;;;;;;;;;;;;;;;18.33;58.37;94330.00;5111866;28;19916;-78
2021/05/17 06:30:54;;;;;;;;;;;;;;;19.35;56.31;94334.75;5086848;28;20307;-77
2021/05/17 06:33:19;;;;;;;;;;;;;;;20.28;52.45;94332.28;5081269;28;20353;-76
2021/05/17 06:35:51;;;;;;;;;;;;;;;21.62;49.84;94343.34;5066503;28;19923;-78
2021/05/17 06:38:16;;;;;;;;;;;;;;;22.79;44.97;94331.56;5103523;28;19924;-79
2021/05/17 06:40:42;;;;;;;;;;;;;;;23.46;43.68;94312.09;5091507;28;19930;-76
2021/05/17 06:43:07;;;;;;;;;;;;;;;24.00;42.72;94314.75;5086596;28;19931;-78
2021/05/17 06:45:33;;;;;;;;;;;;;;;24.43;42.67;94291.19;5273736;22;19932;-77
2021/05/17 06:47:58;;;;;;;;;;;;;;;25.11;40.21;94295.91;5101904;28;19994;-77
2021/05/17 06:50:23;;;;;;;;;;;;;;;25.29;39.51;94293.78;5101596;28;20488;-77
2021/05/17 06:52:49;;;;;;;;;;;;;;;25.31;38.90;94299.53;5082237;28;19927;-76
2021/05/17 06:55:18;;;;;;;;;;;;;;;25.35;38.23;94295.84;5100586;28;19931;-77
2021/05/17 07:00:31;;;;;;;;;;;;;;;25.21;38.91;94305.31;5084385;28;19926;-77
2021/05/17 07:02:57;;;;;;;;;;;;;;;25.40;39.62;94292.97;5094097;28;19920;-76
2021/05/17 07:05:22;;;;;;;;;;;;;;;25.70;39.64;94293.41;5094277;28;20014;-77
2021/05/17 07:13:00;;;;;;;;;;;;;;;26.12;36.46;94286.88;5097493;28;19970;-71
2021/05/17 07:15:25;;;;;;;;;;;;;;;26.13;36.41;94296.44;5098776;28;19924;-71
2021/05/17 07:17:51;;;;;;;;;;;;;;;26.04;37.23;94296.59;5098846;28;20326;-71
2021/05/17 07:20:20;;;;;;;;;;;;;;;26.10;36.79;94300.56;5098798;28;19923;-71
2021/05/17 07:25:29;;;;;;;;;;;;;;;25.39;37.60;94303.94;5084980;28;19930;-71
2021/05/17 07:27:54;;;;;;;;;;;;;;;24.81;39.37;94300.69;5106176;28;19920;-72
2021/05/17 07:30:19;;;;;;;;;;;;;;;24.41;39.75;94295.28;5105430;28;20006;-71
2021/05/17 07:32:44;;;;;;;;;;;;;;;23.36;42.19;94300.75;5105284;28;20264;-71
2021/05/17 07:35:10;;;;;;;;;;;;;;;23.05;43.29;94292.41;5101676;28;19920;-72
2021/05/17 07:37:35;;;;;;;;;;;;;;;22.30;44.26;94278.94;5101642;28;19927;-71
2021/05/17 07:40:00;;;;;;;;;;;;;;;21.81;45.92;94278.44;5101160;28;20410;-72
2021/05/17 07:42:26;;;;;;;;;;;;;;;21.11;47.87;94276.88;5101983;28;20126;-71
2021/05/17 07:44:51;;;;;;;;;;;;;;;21.13;48.10;94280.00;5101422;28;20398;-71
2021/05/17 07:47:16;;;;;;;;;;;;;;;20.88;49.73;94273.63;5082728;28;19924;-72
2021/05/17 07:49:43;;;;;;;;;;;;;;;20.69;50.34;94273.13;5101750;28;20391;-72
2021/05/17 07:52:09;;;;;;;;;;;;;;;20.84;49.76;94266.63;5082651;28;19928;-71
2021/05/17 07:54:36;;;;;;;;;;;;;;;20.48;50.51;94256.28;5101201;28;20036;-72
2021/05/17 07:57:01;;;;;;;;;;;;;;;20.50;50.29;94262.03;5100616;28;19935;-71
2021/05/17 07:59:30;;;;;;;;;;;;;;;20.11;51.40;94258.28;5064783;28;19921;-71
2021/05/17 08:01:56;;;;;;;;;;;;;;;19.95;52.53;94259.78;5082856;28;20018;-71
2021/05/17 08:04:21;;;;;;;;;;;;;;;20.06;51.73;94263.72;5101513;28;20006;-71
2021/05/17 08:06:46;;;;;;;;;;;;;;;20.08;51.76;94266.84;5100368;28;20321;-71
2021/05/17 08:09:12;;;;;;;;;;;;;;;19.89;52.65;94269.69;5082222;28;20006;-71
2021/05/17 08:11:37;;;;;;;;;;;;;;;19.91;52.18;94266.75;5082785;28;19927;-71
2021/05/17 08:14:02;;;;;;;;;;;;;;;19.90;51.98;94275.75;5099835;28;20322;-71
2021/05/17 08:16:29;;;;;;;;;;;;;;;19.82;52.27;94268.56;5101181;28;19923;-71
2021/05/17 08:18:54;;;;;;;;;;;;;;;19.59;53.13;94271.22;5098186;28;19935;-72
2021/05/17 08:21:20;;;;;;;;;;;;;;;19.45;53.76;94270.47;5101132;28;19924;-72
2021/05/17 08:23:45;;;;;;;;;;;;;;;19.41;54.27;94274.81;5082555;28;19924;-72
2021/05/17 08:26:10;;;;;;;;;;;;;;;19.33;55.36;94278.16;5082239;28;20319;-72
2021/05/17 08:28:36;;;;;;;;;;;;;;;19.41;54.11;94283.50;5065791;28;20319;-72
2021/05/17 08:31:14;;;;;;;;;;;;;;;19.40;54.99;94279.31;5100525;28;19960;-72
2021/05/17 08:33:39;;;;;;;;;;;;;;;19.42;54.03;94286.91;5069613;28;19961;-72
2021/05/17 08:36:05;;;;;;;;;;;;;;;19.45;54.03;94286.31;5102210;28;19920;-72
2021/05/17 08:38:30;;;;;;;;;;;;;;;19.49;53.93;94292.53;5100243;28;20454;-73
2021/05/17 08:40:56;;;;;;;;;;;;;;;19.58;54.08;94285.50;5100439;28;19920;-72
2021/05/17 08:43:21;;;;;;;;;;;;;;;19.65;53.95;94277.94;5100946;28;19957;-72
2021/05/17 08:45:46;;;;;;;;;;;;;;;19.69;54.39;94284.19;5099646;28;19959;-72
2021/05/17 08:48:12;;;;;;;;;;;;;;;19.75;55.26;94282.97;5082714;28;19981;-72
2021/05/17 08:50:37;;;;;;;;;;;;;;;19.87;55.78;94286.91;5100232;28;19920;-72
2021/05/17 08:53:02;;;;;;;;;;;;;;;20.09;55.17;94284.22;5100436;28;19920;-72
2021/05/17 08:55:28;;;;;;;;;;;;;;;20.35;54.61;94274.56;5099696;28;20323;-72
2021/05/17 08:57:53;;;;;;;;;;;;;;;20.41;53.67;94269.13;5081856;28;19924;-72
2021/05/17 09:00:20;;;;;;;;;;;;;;;20.47;53.90;94270.56;5098252;28;20018;-73
2021/05/17 09:02:45;;;;;;;;;;;;;;;20.73;54.20;94279.34;5082278;28;19920;-72
2021/05/17 09:05:17;;;;;;;;;;;;;;;20.78;54.53;94279.19;5081278;28;19921;-72
2021/05/17 09:07:46;;;;;;;;;;;;;;;20.61;54.51;94279.16;5098581;28;19930;-73
2021/05/17 09:10:14;;;;;;;;;;;;;;;20.49;55.38;94276.31;5097043;28;19920;-73
2021/05/17 09:12:59;;;;;;;;;;;;;;;20.29;53.19;94275.75;5100002;28;20383;-72
2021/05/17 09:15:31;;;;;;;;;;;;;;;20.22;53.81;94275.44;5080109;28;19927;-72
2021/05/17 09:17:57;;;;;;;;;;;;;;;20.17;54.35;94270.25;5099361;28;20446;-72
2021/05/17 09:20:23;;;;;;;;;;;;;;;20.04;53.83;94276.44;5099482;28;19919;-71
2021/05/17 09:22:50;;;;;;;;;;;;;;;19.99;54.72;94279.19;5064957;28;20039;-71
2021/05/17 09:25:15;;;;;;;;;;;;;;;19.93;56.25;94269.88;5078384;28;19931;-71
2021/05/17 09:27:40;;;;;;;;;;;;;;;19.91;58.04;94272.81;5079818;28;19919;-71
2021/05/17 09:30:05;;;;;;;;;;;;;;;19.84;57.78;94263.75;5099772;28;19924;-72
2021/05/17 09:32:31;;;;;;;;;;;;;;;19.92;57.38;94263.03;5099724;28;19931;-72
2021/05/17 09:34:58;;;;;;;;;;;;;;;20.13;56.79;94264.03;5082115;28;19924;-72
2021/05/17 09:37:23;;;;;;;;;;;;;;;20.39;57.45;94264.94;5098876;28;19973;-72
2021/05/17 09:39:50;;;;;;;;;;;;;;;20.74;55.39;94258.97;5080753;28;19928;-72
2021/05/17 09:42:15;;;;;;;;;;;;;;;21.09;54.32;94252.63;5080168;28;20007;-71
2021/05/17 09:44:43;;;;;;;;;;;;;;;21.30;53.30;94252.81;5065198;28;20003;-72
2021/05/17 09:47:20;;;;;;;;;;;;;;;21.42;53.44;94247.66;5081437;28;19924;-72
2021/05/17 09:49:52;;;;;;;;;;;;;;;21.46;51.83;94232.72;5097717;28;20306;-72
2021/05/17 09:52:17;;;;;;;;;;;;;;;21.60;51.45;94226.47;5100315;28;19931;-73
2021/05/17 09:54:46;;;;;;;;;;;;;;;21.76;51.02;94216.94;5081619;28;19919;-74
2021/05/17 09:57:14;;;;;;;;;;;;;;;21.86;49.97;94216.59;5098540;28;20296;-73
2021/05/17 09:59:42;;;;;;;;;;;;;;;22.04;49.85;94222.59;5081177;28;20033;-73
2021/05/17 10:02:08;;;;;;;;;;;;;;;22.27;48.47;94215.97;5099191;28;20402;-73
2021/05/17 10:04:33;;;;;;;;;;;;;;;22.50;48.29;94213.06;5099392;28;20255;-73
2021/05/17 10:06:58;;;;;;;;;;;;;;;22.61;48.50;94209.69;5080573;28;20488;-73
2021/05/17 10:09:23;;;;;;;;;;;;;;;22.42;47.44;94202.19;5099307;28;19920;-73
2021/05/17 10:11:49;;;;;;;;;;;;;;;22.41;47.25;94205.94;5081322;28;19928;-73
2021/05/17 10:14:14;;;;;;;;;;;;;;;22.36;46.92;94197.41;5099086;28;20405;-73
2021/05/17 10:16:40;;;;;;;;;;;;;;;22.12;48.24;94192.69;5080956;28;19920;-73
2021/05/17 10:19:05;;;;;;;;;;;;;;;21.76;47.54;94185.16;5099367;28;19915;-73
2021/05/17 10:21:30;;;;;;;;;;;;;;;21.63;48.61;94192.22;5080662;28;19924;-73
2021/05/17 10:23:56;;;;;;;;;;;;;;;21.53;48.84;94198.63;5099364;28;19962;-73
2021/05/17 10:26:25;;;;;;;;;;;;;;;21.46;48.93;94200.97;5098737;28;19919;-73
2021/05/17 10:28:54;;;;;;;;;;;;;;;21.31;49.87;94201.47;5064062;28;19916;-73
2021/05/17 10:31:20;;;;;;;;;;;;;;;21.20;49.72;94201.00;5079645;28;20302;-73
2021/05/17 10:33:58;;;;;;;;;;;;;;;21.13;50.07;94211.25;5080461;28;19923;-74
2021/05/17 10:36:42;;;;;;;;;;;;;;;21.05;52.15;94205.97;5097838;28;20396;-73
2021/05/17 10:39:11;;;;;;;;;;;;;;;20.91;53.86;94198.22;5095844;28;19921;-73
2021/05/17 10:41:49;;;;;;;;;;;;;;;20.87;54.71;94187.50;5098386;28;19974;-73
2021/05/17 10:46:46;;;;;;;;;;;;;;;20.81;55.31;94199.28;5080759;28;19982;-73
2021/05/17 10:49:17;;;;;;;;;;;;;;;20.69;54.81;94196.50;5096160;28;20393;-73
2021/05/17 10:51:42;;;;;;;;;;;;;;;20.56;54.78;94197.41;5092890;28;19924;-77
2021/05/17 10:54:28;;;;;;;;;;;;;;;20.41;56.04;94200.47;5080985;28;19920;-77
2021/05/17 10:56:59;;;;;;;;;;;;;;;20.36;56.29;94202.16;5096294;28;19924;-77
2021/05/17 11:02:29;;;;;;;;;;;;;;;20.25;56.53;94206.19;5103032;28;19980;-77
2021/05/17 11:04:55;;;;;;;;;;;;;;;20.20;55.54;94194.97;5084023;28;20519;-77
2021/05/17 11:07:22;;;;;;;;;;;;;;;20.21;55.86;94202.59;5107052;28;19950;-76
2021/05/17 11:09:48;;;;;;;;;;;;;;;20.23;54.49;94204.94;5129180;28;19919;-76
2021/05/17 11:12:43;;;;;;;;;;;;;;;20.17;54.92;94196.34;5125755;28;19924;-77
2021/05/17 11:15:12;;;;;;;;;;;;;;;20.12;55.81;94212.34;5090925;28;19931;-76
2021/05/17 11:17:50;;;;;;;;;;;;;;;20.09;56.68;94212.97;5083809;28;19920;-77
2021/05/17 11:22:56;;;;;;;;;;;;;;;19.89;56.86;94205.59;5089582;28;19924;-76
2021/05/17 11:25:41;;;;;;;;;;;;;;;19.76;57.14;94208.00;5097856;28;20383;-77
2021/05/17 11:28:07;;;;;;;;;;;;;;;19.68;57.38;94205.31;5100614;28;19924;-77
2021/05/17 11:30:45;;;;;;;;;;;;;;;19.59;57.31;94202.66;5085403;28;19931;-77
2021/05/17 11:33:16;;;;;;;;;;;;;;;19.60;57.65;94204.22;5155374;22;19924;-76
2021/05/17 11:36:00;;;;;;;;;;;;;;;19.57;58.32;94199.53;5091374;28;19920;-77
2021/05/17 11:38:25;;;;;;;;;;;;;;;19.55;58.01;94201.72;5090017;28;19930;-76
2021/05/17 11:40:51;;;;;;;;;;;;;;;19.52;58.06;94202.25;5073195;28;19921;-77
2021/05/17 11:43:16;;;;;;;;;;;;;;;19.48;58.72;94199.47;5073855;28;20403;-77
2021/05/17 11:45:41;;;;;;;;;;;;;;;19.43;59.03;94204.09;5072083;28;20119;-76
2021/05/17 11:48:07;;;;;;;;;;;;;;;19.38;59.91;94204.22;5089984;28;19923;-77
2021/05/17 11:50:32;;;;;;;;;;;;;;;19.34;61.38;94205.88;5089802;28;20317;-77
2021/05/17 11:52:57;;;;;;;;;;;;;;;19.32;62.14;94208.03;5089445;28;19939;-78
2021/05/17 11:55:23;;;;;;;;;;;;;;;19.30;63.10;94210.22;5071510;28;20003;-77
2021/05/17 11:57:48;;;;;;;;;;;;;;;19.32;62.79;94203.56;5089712;28;20353;-77
2021/05/17 12:00:17;;;;;;;;;;;;;;;19.42;62.90;94210.44;5072915;28;19924;-77
2021/05/17 12:02:43;;;;;;;;;;;;;;;19.54;63.16;94199.34;5072860;28;19920;-77
2021/05/17 12:05:08;;;;;;;;;;;;;;;19.62;62.48;94198.63;5091856;28;19923;-77
2021/05/17 12:07:41;;;;;;;;;;;;;;;19.64;61.35;94194.59;5092729;28;20456;-78
2021/05/17 12:10:06;;;;;;;;;;;;;;;19.66;61.33;94191.66;5090175;28;19924;-77
2021/05/17 12:12:31;;;;;;;;;;;;;;;19.72;61.22;94206.28;5045696;28;20441;-77
2021/05/17 12:14:58;;;;;;;;;;;;;;;19.69;60.95;94199.00;5070161;28;19933;-77
2021/05/17 12:17:24;;;;;;;;;;;;;;;19.59;61.23;94205.28;5072587;28;19927;-76
2021/05/17 12:19:55;;;;;;;;;;;;;;;19.50;59.94;94196.50;5055814;28;19920;-76
2021/05/17 12:22:27;;;;;;;;;;;;;;;19.25;59.03;94197.94;5047611;28;20418;-76
2021/05/17 12:24:56;;;;;;;;;;;;;;;19.16;59.05;94184.69;5090719;28;19924;-77
2021/05/17 12:27:21;;;;;;;;;;;;;;;19.10;58.67;94183.25;5073098;28;19983;-77
2021/05/17 12:30:07;;;;;;;;;;;;;;;19.13;59.19;94195.84;5073164;28;19963;-77
2021/05/17 12:32:32;;;;;;;;;;;;;;;19.15;59.41;94180.50;5070991;28;19946;-78
2021/05/17 12:34:58;;;;;;;;;;;;;;;19.06;59.83;94190.22;5091910;28;20383;-78
2021/05/17 12:37:24;;;;;;;;;;;;;;;19.06;59.63;94178.91;5072695;28;20353;-77
2021/05/17 12:40:08;;;;;;;;;;;;;;;18.92;59.75;94168.41;5128264;22;19927;-76
2021/05/17 12:42:33;;;;;;;;;;;;;;;18.94;60.14;94165.47;5091435;28;19960;-77
2021/05/17 12:45:09;;;;;;;;;;;;;;;18.65;61.09;94176.41;5091307;28;19951;-78
2021/05/17 12:47:38;;;;;;;;;;;;;;;18.60;61.11;94172.00;5090830;28;19920;-77
2021/05/17 12:50:04;;;;;;;;;;;;;;;18.18;62.01;94173.16;5082059;28;19922;-77
2021/05/17 12:52:31;;;;;;;;;;;;;;;18.11;62.79;94178.81;5061691;28;19923;-77
2021/05/17 12:55:16;;;;;;;;;;;;;;;18.13;62.30;94184.56;5081377;28;19959;-76
2021/05/17 12:57:45;;;;;;;;;;;;;;;17.92;63.03;94205.22;5081309;28;20003;-77
2021/05/17 13:00:10;;;;;;;;;;;;;;;17.72;64.22;94208.22;5079383;28;20009;-77
2021/05/17 13:02:36;;;;;;;;;;;;;;;17.45;65.31;94201.06;5090316;28;19920;-77
2021/05/17 13:05:02;;;;;;;;;;;;;;;17.23;66.56;94209.53;5089799;28;19924;-78
2021/05/17 13:07:27;;;;;;;;;;;;;;;17.29;66.98;94208.41;5080183;28;19969;-77
2021/05/17 13:09:56;;;;;;;;;;;;;;;17.31;66.57;94206.28;5079022;28;20357;-77
2021/05/17 13:12:21;;;;;;;;;;;;;;;17.29;67.77;94213.66;5077241;28;19934;-77
2021/05/17 13:17:18;;;;;;;;;;;;;;;17.49;67.47;94206.50;5134548;22;19930;-76
2021/05/17 13:20:04;;;;;;;;;;;;;;;17.59;67.29;94195.81;5088519;28;19928;-77
2021/05/17 13:30:41;;;;;;;;;;;;;;;17.94;67.21;94187.31;5089506;28;19973;-76